createdAt,value
2022-08-28T00:00:46.063Z,3.33
2022-08-28T00:03:15.539Z,2.87
2022-08-28T00:05:46.137Z,3.23
2022-08-28T00:08:17.317Z,3.20
2022-08-28T00:10:45.982Z,3.50
2022-08-28T00:13:20.473Z,3.60
2022-08-28T00:15:49.981Z,3.30
2022-08-28T00:18:20.241Z,3.40
2022-08-28T00:20:49.534Z,3.17
2022-08-28T00:23:17.608Z,3.40
2022-08-28T00:25:45.621Z,3.13
2022-08-28T00:28:23.827Z,3.40
2022-08-28T00:30:56.469Z,3.10
2022-08-28T00:33:27.717Z,3.30
2022-08-28T00:35:56.196Z,3.60
2022-08-28T00:38:27.301Z,3.47
2022-08-28T00:41:00.073Z,3.40
2022-08-28T00:43:36.530Z,2.93
2022-08-28T00:46:09.165Z,3.30
2022-08-28T00:48:37.556Z,3.10
2022-08-28T00:51:26.508Z,3.03
2022-08-28T00:53:58.922Z,3.00
2022-08-28T00:56:28.841Z,2.87
2022-08-28T00:58:58.316Z,3.30
2022-08-28T01:01:28.409Z,3.30
2022-08-28T01:04:02.281Z,3.33
2022-08-28T01:06:30.329Z,3.03
2022-08-28T01:08:59.032Z,3.30
2022-08-28T01:11:30.181Z,3.43
2022-08-28T01:14:03.078Z,3.23
2022-08-28T01:16:34.473Z,3.33
2022-08-28T01:19:03.768Z,3.03
2022-08-28T01:21:40.263Z,2.97
2022-08-28T01:24:12.194Z,3.90
2022-08-28T01:26:40.263Z,3.30
2022-08-28T01:29:09.502Z,3.20
2022-08-28T01:31:39.423Z,3.53
2022-08-28T01:34:12.508Z,3.80
2022-08-28T01:36:41.462Z,3.10
2022-08-28T01:39:14.923Z,3.43
2022-08-28T01:41:45.767Z,3.00
2022-08-28T01:44:15.677Z,3.30
2022-08-28T01:46:47.526Z,2.83
2022-08-28T01:49:15.622Z,2.70
2022-08-28T01:51:44.012Z,3.23
2022-08-28T01:54:14.579Z,3.30
2022-08-28T01:56:46.252Z,2.93
2022-08-28T01:59:15.890Z,3.33
2022-08-28T02:01:44.088Z,3.90
2022-08-28T02:04:12.899Z,3.20
2022-08-28T02:06:41.211Z,3.40
2022-08-28T02:09:13.496Z,3.00
2022-08-28T02:11:47.432Z,3.40
2022-08-28T02:14:19.339Z,3.23
2022-08-28T02:16:47.523Z,3.33
2022-08-28T02:19:15.541Z,3.33
2022-08-28T02:21:43.561Z,3.33
2022-08-28T02:24:11.549Z,3.23
2022-08-28T02:26:39.945Z,3.23
2022-08-28T02:29:09.335Z,3.30
2022-08-28T02:31:37.357Z,3.10
2022-08-28T02:34:07.381Z,3.10
2022-08-28T02:36:35.344Z,3.40
2022-08-28T02:39:03.392Z,3.30
2022-08-28T02:41:31.357Z,3.90
2022-08-28T02:44:01.087Z,3.87
2022-08-28T02:46:30.603Z,3.87
2022-08-28T02:48:58.740Z,4.00
2022-08-28T02:51:27.334Z,3.23
2022-08-28T02:53:55.351Z,3.40
2022-08-28T02:56:23.495Z,3.40
2022-08-28T02:58:51.753Z,3.43
2022-08-28T03:01:22.337Z,2.97
2022-08-28T03:03:51.642Z,3.00
2022-08-28T03:06:19.718Z,3.20
2022-08-28T03:08:47.767Z,3.63
2022-08-28T05:22:18.769Z,2.80
2022-08-28T05:24:47.309Z,3.10
2022-08-28T05:27:15.405Z,2.87
2022-08-28T05:29:43.346Z,2.90
2022-08-28T05:32:11.316Z,3.20
2022-08-28T05:34:39.280Z,2.63
2022-08-28T05:37:08.839Z,3.00
2022-08-28T05:39:38.126Z,3.00
2022-08-28T05:42:06.628Z,2.67
2022-08-28T05:44:35.745Z,2.73
2022-08-28T05:47:03.826Z,3.13
2022-08-28T05:49:32.141Z,2.73
2022-08-28T05:52:00.072Z,2.60
2022-08-28T05:54:29.151Z,2.63
2022-08-28T05:56:58.594Z,2.67
2022-08-28T05:59:26.620Z,2.47
2022-08-28T06:01:54.633Z,2.33
2022-08-28T06:04:26.722Z,3.00
2022-08-28T06:06:54.971Z,2.63
2022-08-28T06:09:28.988Z,2.73
2022-08-28T06:12:00.893Z,2.13
2022-08-28T06:14:30.950Z,2.57
2022-08-28T06:16:59.961Z,2.27
2022-08-28T06:19:30.136Z,2.27
2022-08-28T06:22:01.037Z,2.20
2022-08-28T06:24:35.660Z,2.43
2022-08-28T06:27:05.275Z,2.53
2022-08-28T06:29:33.222Z,2.30
2022-08-28T06:32:04.354Z,2.23
2022-08-28T06:34:32.585Z,2.77
2022-08-28T06:37:00.660Z,2.30
2022-08-28T06:39:28.626Z,2.80
2022-08-28T06:41:56.665Z,1.93
2022-08-28T06:44:26.051Z,2.20
2022-08-28T06:46:55.694Z,1.87
2022-08-28T06:49:23.750Z,2.37
2022-08-28T06:51:51.720Z,2.53
2022-08-28T06:54:22.798Z,2.13
2022-08-28T06:56:51.642Z,2.60
2022-08-28T06:59:19.752Z,2.10
2022-08-28T07:01:49.282Z,2.03
2022-08-28T07:04:17.329Z,2.13
2022-08-28T07:06:50.357Z,1.73
2022-08-28T07:09:21.719Z,2.40
2022-08-28T07:11:49.687Z,2.10
2022-08-28T07:14:17.804Z,2.13
2022-08-28T07:16:45.983Z,2.13
2022-08-28T07:19:15.713Z,2.70
2022-08-28T07:21:46.465Z,2.20
2022-08-28T07:24:18.327Z,2.10
2022-08-28T07:26:48.549Z,2.27
2022-08-28T07:29:17.050Z,2.20
2022-08-28T07:31:46.841Z,2.30
2022-08-28T07:34:16.960Z,2.30
2022-08-28T07:36:45.396Z,2.60
2022-08-28T07:39:15.889Z,2.30
2022-08-28T07:41:44.885Z,1.67
2022-08-28T07:44:34.734Z,2.50
2022-08-28T07:47:06.353Z,2.23
2022-08-28T07:49:39.225Z,2.33
2022-08-28T07:52:08.686Z,2.43
2022-08-28T07:54:37.641Z,2.20
2022-08-28T07:57:06.197Z,1.93
2022-08-28T07:59:36.954Z,2.27
2022-08-28T08:02:05.976Z,2.40
2022-08-28T08:04:35.294Z,2.30
2022-08-28T08:07:07.908Z,2.33
2022-08-28T08:09:39.543Z,2.30
2022-08-28T08:12:10.323Z,1.97
2022-08-28T08:14:38.771Z,2.10
2022-08-28T08:17:09.801Z,2.10
2022-08-28T08:19:37.848Z,2.03
2022-08-28T08:22:07.400Z,2.50
2022-08-28T08:24:35.378Z,2.40
2022-08-28T08:27:03.615Z,2.20
2022-08-28T08:29:35.419Z,2.20
2022-08-28T08:32:07.134Z,2.77
2022-08-28T08:34:38.609Z,2.23
2022-08-28T08:37:08.567Z,2.10
2022-08-28T08:39:37.706Z,2.30
2022-08-28T08:42:10.326Z,2.03
2022-08-28T08:44:41.715Z,2.43
2022-08-28T08:47:15.225Z,2.13
2022-08-28T08:49:52.397Z,2.33
2022-08-28T08:52:36.123Z,2.40
2022-08-28T08:55:24.271Z,2.00
2022-08-28T08:57:58.399Z,2.37
2022-08-28T09:00:26.994Z,1.90
2022-08-28T09:03:01.621Z,2.40
2022-08-28T09:05:45.345Z,2.37
2022-08-28T09:08:39.662Z,2.83
2022-08-28T09:11:21.532Z,2.30
2022-08-28T09:13:59.612Z,1.97
2022-08-28T09:16:31.908Z,2.40
2022-08-28T09:19:01.403Z,1.70
2022-08-28T09:23:57.137Z,2.73
2022-08-28T09:26:26.789Z,2.40
2022-08-28T09:29:05.213Z,2.20
2022-08-28T09:31:37.358Z,1.90
2022-08-28T09:34:38.599Z,2.13
2022-08-28T09:37:09.603Z,2.67
2022-08-28T09:39:48.103Z,2.43
2022-08-28T09:42:38.508Z,2.00
2022-08-28T09:45:15.010Z,2.30
2022-08-28T09:47:48.836Z,1.97
2022-08-28T09:50:27.528Z,1.93
2022-08-28T09:52:58.187Z,2.00
2022-08-28T09:55:38.243Z,1.90
2022-08-28T09:58:07.221Z,2.40
2022-08-28T10:00:38.587Z,2.23
2022-08-28T10:03:15.537Z,1.97
2022-08-28T10:05:51.283Z,2.13
2022-08-28T10:08:33.873Z,1.80
2022-08-28T10:11:13.322Z,2.17
2022-08-28T10:13:49.629Z,2.27
2022-08-28T10:16:33.047Z,1.70
2022-08-28T10:19:10.556Z,2.03
2022-08-28T10:21:46.046Z,2.20
2022-08-28T10:24:27.919Z,2.10
2022-08-28T10:27:08.513Z,2.23
2022-08-28T10:29:49.562Z,1.80
2022-08-28T10:32:29.599Z,2.10
2022-08-28T10:35:07.379Z,1.90
2022-08-28T10:37:46.502Z,2.20
2022-08-28T10:40:18.943Z,2.23
2022-08-28T10:42:55.148Z,2.03
2022-08-28T10:45:25.501Z,1.70
2022-08-28T10:47:58.014Z,1.90
2022-08-28T10:50:29.205Z,2.07
2022-08-28T10:53:01.218Z,1.97
2022-08-28T10:55:36.918Z,2.07
2022-08-28T10:58:24.966Z,2.20
2022-08-28T11:00:55.869Z,2.10
2022-08-28T11:03:34.893Z,2.30
2022-08-28T11:06:08.695Z,1.90
2022-08-28T11:08:38.246Z,2.63
2022-08-28T11:11:13.167Z,2.20
2022-08-28T11:13:48.580Z,2.10
2022-08-28T11:16:23.159Z,2.00
2022-08-28T11:19:23.972Z,2.33
2022-08-28T11:21:55.558Z,2.40
2022-08-28T11:24:43.617Z,2.43
2022-08-28T11:27:21.518Z,1.93
2022-08-28T11:30:20.240Z,1.70
2022-08-28T11:33:34.689Z,2.00
2022-08-28T11:36:03.492Z,2.03
2022-08-28T11:39:05.561Z,2.30
2022-08-28T11:41:36.405Z,1.70
2022-08-28T11:44:25.483Z,1.63
2022-08-28T11:46:57.690Z,2.30
2022-08-28T11:49:45.918Z,1.73
2022-08-28T11:52:37.392Z,2.00
2022-08-28T11:55:14.917Z,2.03
2022-08-28T11:57:55.304Z,1.90
2022-08-28T12:00:29.075Z,1.90
2022-08-28T12:03:15.448Z,1.87
2022-08-28T12:05:49.717Z,1.70
2022-08-28T12:09:10.610Z,2.17
2022-08-28T12:12:03.664Z,1.80
2022-08-28T12:15:10.021Z,1.90
2022-08-28T12:17:47.901Z,1.90
2022-08-28T12:20:29.455Z,1.93
2022-08-28T12:23:00.409Z,1.80
2022-08-28T12:25:34.064Z,2.13
2022-08-28T12:28:17.946Z,2.17
2022-08-28T12:30:54.547Z,1.77
2022-08-28T12:33:31.882Z,1.80
2022-08-28T12:36:05.521Z,2.10
2022-08-28T12:38:35.366Z,1.77
2022-08-28T12:41:03.807Z,1.70
2022-08-28T12:43:35.768Z,1.90
2022-08-28T12:46:19.615Z,2.27
2022-08-28T12:48:54.207Z,1.77
2022-08-28T12:51:26.305Z,2.30
2022-08-28T12:53:56.813Z,1.80
2022-08-28T12:56:29.947Z,2.00
2022-08-28T12:59:18.192Z,2.00
2022-08-28T13:01:46.290Z,2.10
2022-08-28T13:04:28.176Z,1.90
2022-08-28T13:07:04.387Z,2.00
2022-08-28T13:09:32.549Z,1.83
2022-08-28T13:12:00.624Z,1.70
2022-08-28T13:14:43.967Z,1.63
2022-08-28T13:17:12.693Z,1.80
2022-08-28T13:19:40.945Z,2.23
2022-08-28T13:22:35.260Z,1.83
2022-08-28T13:25:05.328Z,1.80
2022-08-28T13:27:34.474Z,1.87
2022-08-28T13:30:08.546Z,1.90
2022-08-28T13:32:39.058Z,1.80
2022-08-28T13:35:27.893Z,1.80
2022-08-28T13:37:59.395Z,1.73
2022-08-28T13:43:19.446Z,1.97
2022-08-28T13:45:49.234Z,2.20
2022-08-28T13:48:19.617Z,2.03
2022-08-28T13:50:51.373Z,2.23
2022-08-28T13:53:22.038Z,1.80
2022-08-28T13:55:52.403Z,1.97
2022-08-28T13:58:20.556Z,2.03
2022-08-28T14:00:50.942Z,1.60
2022-08-28T14:03:38.177Z,1.87
2022-08-28T14:06:09.172Z,1.90
2022-08-28T14:08:39.709Z,2.05
2022-08-28T14:11:08.312Z,2.13
2022-08-28T14:13:46.973Z,1.88
2022-08-28T14:16:24.289Z,1.90
2022-08-28T14:18:52.741Z,1.87
2022-08-28T14:21:21.171Z,1.90
2022-08-28T14:23:50.727Z,2.20
2022-08-28T14:26:19.401Z,1.80
2022-08-28T14:28:47.567Z,1.57
2022-08-28T14:31:15.655Z,1.83
2022-08-28T14:33:45.368Z,1.70
2022-08-28T14:36:16.791Z,1.63
2022-08-28T14:38:44.794Z,1.70
2022-08-28T14:41:15.020Z,1.60
2022-08-28T14:43:43.172Z,1.70
2022-08-28T14:46:16.291Z,2.17
2022-08-28T14:48:44.421Z,1.83
2022-08-28T14:51:12.564Z,2.27
2022-08-28T14:53:40.685Z,1.50
2022-08-28T14:56:09.760Z,2.00
2022-08-28T14:58:39.289Z,2.77
2022-08-28T15:01:08.010Z,2.00
2022-08-28T15:03:36.787Z,1.90
2022-08-28T15:06:07.827Z,1.97
2022-08-28T15:08:38.201Z,1.90
2022-08-28T15:11:07.759Z,1.77
2022-08-28T15:13:35.870Z,1.80
2022-08-28T15:16:10.569Z,1.73
2022-08-28T15:18:45.809Z,2.00
2022-08-28T15:21:18.120Z,1.70
2022-08-28T15:23:46.237Z,2.33
2022-08-28T15:26:15.552Z,2.10
2022-08-28T15:32:03.741Z,2.10
2022-08-28T15:34:31.806Z,2.33
2022-08-28T15:37:00.352Z,2.73
2022-08-28T15:39:47.548Z,2.23
2022-08-28T15:42:16.408Z,2.10
2022-08-28T15:44:44.823Z,1.93
2022-08-28T15:47:14.874Z,2.20
2022-08-28T15:49:48.962Z,2.40
2022-08-28T15:52:19.310Z,2.40
2022-08-28T15:54:47.792Z,2.30
2022-08-28T15:57:15.891Z,2.63
2022-08-28T15:59:48.566Z,2.47
2022-08-28T16:02:20.847Z,2.80
2022-08-28T16:04:49.527Z,2.70
2022-08-28T16:07:18.456Z,2.70
2022-08-28T16:09:46.595Z,2.63
2022-08-28T16:12:14.961Z,2.60
2022-08-28T16:14:43.073Z,2.83
2022-08-28T16:17:11.651Z,2.40
2022-08-28T16:19:42.213Z,2.77
2022-08-28T16:22:11.505Z,2.90
2022-08-28T16:24:39.530Z,2.60
2022-08-28T16:29:55.500Z,2.50
2022-08-28T16:32:25.041Z,2.57
2022-08-28T16:34:54.550Z,2.70
2022-08-28T16:35:49.384Z,2.43
2022-08-28T16:37:22.883Z,2.90
2022-08-28T16:39:56.021Z,2.70
2022-08-28T16:42:24.450Z,2.83
2022-08-28T16:44:56.897Z,2.47
2022-08-28T16:47:25.077Z,3.03
2022-08-28T16:49:57.361Z,2.37
2022-08-28T16:52:27.054Z,2.83
2022-08-28T16:54:55.182Z,3.07
2022-08-28T16:57:23.820Z,3.10
2022-08-28T16:59:53.184Z,3.27
2022-08-28T17:02:26.636Z,3.40
2022-08-28T17:05:00.364Z,2.93
2022-08-28T17:07:28.783Z,3.23
2022-08-28T17:09:56.798Z,3.10
2022-08-28T17:12:24.839Z,2.97
2022-08-28T17:14:52.883Z,3.33
2022-08-28T17:17:21.036Z,2.90
2022-08-28T17:19:48.996Z,3.13
2022-08-28T17:22:32.514Z,4.07
2022-08-28T17:25:02.393Z,3.40
2022-08-28T17:27:32.289Z,4.03
2022-08-28T17:30:01.395Z,3.00
2022-08-28T17:32:29.772Z,3.47
2022-08-28T17:34:57.900Z,5.53
2022-08-28T17:37:27.528Z,4.03
2022-08-28T17:39:55.908Z,3.43
2022-08-28T17:42:23.949Z,2.87
2022-08-28T17:44:52.148Z,3.10
2022-08-28T17:47:27.449Z,3.00
2022-08-28T17:49:59.771Z,3.20
2022-08-28T17:52:30.041Z,2.90
2022-08-28T17:54:58.558Z,3.00
2022-08-28T17:57:30.288Z,2.80
2022-08-28T17:59:58.935Z,3.10
2022-08-28T18:02:27.494Z,2.70
2022-08-28T18:04:56.177Z,2.53
2022-08-28T18:07:24.225Z,3.13
2022-08-28T18:09:53.679Z,2.80
2022-08-28T18:12:21.709Z,2.70
2022-08-28T18:14:49.864Z,2.80
2022-08-28T18:17:17.951Z,3.10
2022-08-28T18:19:45.965Z,3.10
2022-08-28T18:22:15.782Z,2.63
2022-08-28T18:24:44.560Z,2.63
2022-08-28T18:27:14.049Z,2.10
2022-08-28T18:29:42.011Z,2.60
2022-08-28T18:32:10.022Z,2.37
2022-08-28T18:34:38.038Z,2.30
2022-08-28T18:37:06.603Z,2.57
2022-08-28T18:39:44.214Z,2.40
2022-08-28T18:42:21.659Z,2.73
2022-08-28T18:44:51.619Z,2.77
2022-08-28T18:47:19.784Z,2.00
2022-08-28T18:49:47.933Z,2.40
2022-08-28T18:52:15.937Z,2.27
2022-08-28T18:54:43.984Z,2.40
2022-08-28T18:57:15.409Z,2.00
2022-08-28T18:59:43.741Z,2.20
2022-08-28T19:02:13.066Z,2.13
2022-08-28T19:04:42.661Z,2.50
2022-08-28T19:07:10.664Z,2.00
2022-08-28T19:09:38.792Z,2.10
2022-08-28T19:12:07.403Z,2.33
2022-08-28T19:14:41.047Z,2.20
2022-08-28T19:17:09.165Z,2.30
2022-08-28T19:19:37.212Z,2.57
2022-08-28T19:22:05.520Z,2.43
2022-08-28T19:24:34.661Z,2.13
2022-08-28T19:27:03.464Z,2.60
2022-08-28T19:29:31.476Z,2.50
2022-08-28T19:32:01.445Z,2.30
2022-08-28T19:34:29.795Z,2.60
2022-08-28T19:36:57.956Z,2.07
2022-08-28T19:39:26.471Z,1.67
2022-08-28T19:41:55.099Z,2.43
2022-08-28T19:44:23.211Z,1.97
2022-08-28T19:46:51.183Z,2.10
2022-08-28T19:49:20.828Z,1.97
2022-08-28T19:51:49.102Z,2.43
2022-08-28T19:54:17.048Z,1.63
2022-08-28T19:56:45.026Z,2.03
2022-08-28T19:59:13.038Z,1.90
2022-08-28T20:01:43.830Z,2.20
2022-08-28T20:04:17.493Z,2.13
2022-08-28T20:06:48.168Z,2.10
2022-08-28T20:09:17.252Z,2.17
2022-08-28T20:11:46.858Z,2.20
2022-08-28T20:14:16.708Z,2.00
2022-08-28T20:16:48.294Z,2.10
2022-08-28T20:19:16.377Z,2.30
2022-08-28T20:21:49.035Z,1.50
2022-08-28T20:24:20.301Z,2.00
2022-08-28T20:26:48.962Z,1.70
2022-08-28T20:29:17.280Z,1.70
2022-08-28T20:31:48.318Z,1.93
2022-08-28T20:34:17.870Z,1.90
2022-08-28T20:36:47.340Z,2.10
2022-08-28T20:39:15.623Z,2.23
2022-08-28T20:41:45.524Z,1.67
2022-08-28T20:44:15.835Z,1.97
2022-08-28T20:46:44.101Z,2.07
2022-08-28T20:49:21.707Z,1.60
2022-08-28T20:51:56.322Z,1.83
2022-08-28T20:54:27.381Z,1.97
2022-08-28T20:56:57.312Z,2.10
2022-08-28T20:59:27.249Z,1.93
2022-08-28T21:02:02.382Z,1.80
2022-08-28T21:04:30.532Z,1.90
2022-08-28T21:06:59.871Z,1.80
2022-08-28T21:10:04.607Z,1.90
2022-08-28T21:12:16.610Z,1.80
2022-08-28T21:14:45.483Z,1.80
2022-08-28T21:17:20.879Z,2.00
2022-08-28T21:19:58.516Z,2.00
2022-08-28T21:22:27.876Z,1.70
2022-08-28T21:24:55.926Z,1.90
2022-08-28T21:27:23.960Z,2.00
2022-08-28T21:29:51.949Z,1.90
2022-08-28T21:32:20.116Z,1.67
2022-08-28T21:34:48.151Z,2.10
2022-08-28T21:37:16.516Z,2.10
2022-08-28T21:39:45.945Z,1.50
2022-08-28T21:42:14.034Z,2.47
2022-08-28T21:44:51.647Z,1.80
2022-08-28T21:47:21.364Z,1.70
2022-08-28T21:49:50.443Z,1.80
2022-08-28T21:52:18.818Z,1.97
2022-08-28T21:54:48.414Z,2.20
2022-08-28T21:57:17.646Z,1.90
2022-08-28T21:59:45.682Z,1.63
2022-08-28T22:02:13.856Z,2.13
2022-08-28T22:04:42.114Z,1.77
2022-08-28T22:07:11.961Z,2.17
2022-08-28T22:09:40.394Z,1.90
2022-08-28T22:12:10.048Z,2.43
2022-08-28T22:14:38.742Z,1.80
2022-08-28T22:17:11.530Z,1.80
2022-08-28T22:19:40.365Z,1.63
2022-08-28T22:22:25.854Z,1.93
2022-08-28T22:24:53.964Z,1.87
2022-08-28T22:27:23.843Z,2.10
2022-08-28T22:29:51.912Z,2.10
2022-08-28T22:32:25.345Z,1.63
2022-08-28T22:34:54.108Z,2.43
2022-08-28T22:37:22.964Z,1.90
2022-08-28T22:39:51.016Z,2.17
2022-08-28T22:42:23.025Z,2.10
2022-08-28T22:44:52.408Z,2.20
2022-08-28T22:47:22.360Z,1.60
2022-08-28T22:49:52.150Z,1.97
2022-08-28T22:52:20.188Z,1.77
2022-08-28T22:54:53.059Z,2.20
2022-08-28T22:57:21.627Z,1.73
2022-08-28T22:59:50.118Z,2.07
2022-08-28T23:02:20.411Z,1.80
2022-08-28T23:04:52.344Z,1.83
2022-08-28T23:07:20.553Z,2.03
2022-08-28T23:09:48.608Z,2.33
2022-08-28T23:12:16.608Z,2.13
2022-08-28T23:14:48.400Z,2.07
2022-08-28T23:17:17.423Z,2.03
2022-08-28T23:19:48.196Z,2.37
2022-08-28T23:22:17.445Z,2.43
2022-08-28T23:24:47.258Z,2.50
2022-08-28T23:27:35.205Z,2.07
2022-08-28T23:30:03.724Z,2.20
2022-08-28T23:32:32.012Z,2.17
2022-08-28T23:35:07.053Z,1.97
2022-08-28T23:37:36.340Z,2.23
2022-08-28T23:40:09.704Z,1.80
2022-08-28T23:42:40.280Z,2.07
2022-08-28T23:45:09.473Z,2.00
2022-08-28T23:47:40.609Z,1.73
2022-08-28T23:50:13.805Z,2.17
2022-08-28T23:52:43.039Z,2.07
2022-08-28T23:55:13.271Z,2.40
2022-08-28T23:57:44.014Z,1.90
